Time;durP1;ratioP1;P1;durP2;ratioP2;P2;SDS_P1;SDS_P2;PMS_P1;PMS_P2;Temp;Humidity;BMP_temperature;BMP_pressure;BME280_temperature;BME280_humidity;BME280_pressure;Samples;Min_cycle;Max_cycle;Signal;HPM_P1;HPM_P2
2022/07/09 11:12:15;;;;;;;7.38;3.17;;;21.80;99.90;;;;;;5120105;27;21654;-59
2022/07/09 11:14:51;;;;;;;4.63;2.25;;;21.80;99.90;;;;;;5119879;28;20043;-60
2022/07/09 11:17:18;;;;;;;6.60;2.80;;;21.80;99.90;;;;;;5119849;27;20039;-61
2022/07/09 11:19:44;;;;;;;6.20;2.38;;;21.80;99.90;;;;;;5120438;27;20051;-59
2022/07/09 11:22:10;;;;;;;6.95;2.50;;;21.90;99.90;;;;;;5119139;27;20040;-59
2022/07/09 11:24:35;;;;;;;6.60;2.35;;;21.90;99.90;;;;;;5119274;28;20142;-59
2022/07/09 11:27:06;;;;;;;6.88;2.55;;;21.90;99.90;;;;;;5119865;27;20533;-59
2022/07/09 11:29:32;;;;;;;8.38;2.60;;;22.00;99.90;;;;;;5119482;27;20040;-59
2022/07/09 11:31:58;;;;;;;7.60;2.88;;;22.00;99.90;;;;;;5119656;27;20047;-59
2022/07/09 11:34:23;;;;;;;6.97;2.50;;;21.90;99.90;;;;;;5119140;27;20084;-59
2022/07/09 11:36:54;;;;;;;6.78;2.38;;;21.90;99.90;;;;;;5117524;28;20070;-59
2022/07/09 11:39:22;;;;;;;7.53;2.22;;;21.90;99.90;;;;;;5118647;27;20039;-59
2022/07/09 11:41:48;;;;;;;4.22;2.13;;;21.90;99.90;;;;;;5119523;27;20048;-59
2022/07/09 11:44:22;;;;;;;5.82;2.00;;;21.90;99.90;;;;;;5115653;28;20043;-60
2022/07/09 11:47:10;;;;;;;6.70;2.08;;;21.90;99.90;;;;;;5107341;28;20050;-60
2022/07/09 11:49:44;;;;;;;7.60;2.17;;;21.90;99.90;;;;;;5107969;27;20035;-60
2022/07/09 11:52:24;;;;;;;5.90;2.30;;;21.90;99.90;;;;;;5117289;28;20451;-60
2022/07/09 11:55:07;;;;;;;5.68;1.80;;;21.90;99.90;;;;;;5118733;27;20115;-60
2022/07/09 11:57:34;;;;;;;5.57;2.10;;;21.90;99.90;;;;;;5118137;27;20039;-60
2022/07/09 12:00:02;;;;;;;4.25;1.88;;;21.90;99.90;;;;;;5117663;28;20465;-61
2022/07/09 12:02:32;;;;;;;3.35;1.83;;;21.90;99.90;;;;;;5118806;27;20043;-60
2022/07/09 12:04:59;;;;;;;5.38;1.98;;;21.90;99.90;;;;;;5118406;27;20044;-60
2022/07/09 12:07:25;;;;;;;5.35;2.03;;;21.90;99.90;;;;;;5117579;27;20058;-60
2022/07/09 12:10:01;;;;;;;5.43;1.67;;;21.90;99.90;;;;;;5118251;27;20055;-61
2022/07/09 12:12:27;;;;;;;5.78;2.10;;;22.00;99.90;;;;;;5118165;27;20112;-60
2022/07/09 12:14:54;;;;;;;4.13;1.65;;;22.00;99.90;;;;;;5118258;27;20126;-59
2022/07/09 12:17:27;;;;;;;4.10;1.67;;;22.00;99.90;;;;;;5118612;27;20048;-60
2022/07/09 12:19:53;;;;;;;6.13;1.67;;;22.00;99.90;;;;;;5119081;27;20054;-60
2022/07/09 12:22:20;;;;;;;3.15;1.50;;;22.00;99.90;;;;;;5110582;28;20044;-65
2022/07/09 12:24:47;;;;;;;6.60;1.60;;;22.00;99.90;;;;;;5105171;28;20043;-65
2022/07/09 12:27:13;;;;;;;9.77;1.67;;;22.00;99.90;;;;;;5106031;28;20048;-67
2022/07/09 12:29:38;;;;;;;4.75;1.50;;;22.00;99.90;;;;;;5105199;28;20050;-66
2022/07/09 12:32:04;;;;;;;10.57;1.45;;;22.00;99.90;;;;;;5104783;28;20430;-66
2022/07/09 12:34:30;;;;;;;4.82;1.60;;;22.00;99.90;;;;;;5105112;28;20108;-66
2022/07/09 12:36:56;;;;;;;5.75;1.30;;;22.00;99.90;;;;;;5104039;28;20498;-66
2022/07/09 12:39:22;;;;;;;4.70;1.35;;;22.10;99.90;;;;;;5104096;28;20517;-65
2022/07/09 12:41:48;;;;;;;4.25;1.50;;;22.00;99.90;;;;;;5105197;28;20050;-61
2022/07/09 12:44:13;;;;;;;5.00;1.77;;;21.90;99.90;;;;;;5101042;28;20051;-61
2022/07/09 12:46:39;;;;;;;4.25;1.27;;;22.00;99.90;;;;;;5093313;28;20076;-61
2022/07/09 12:49:05;;;;;;;6.07;1.58;;;22.10;99.90;;;;;;5083841;28;20318;-61
2022/07/09 12:51:31;;;;;;;5.80;1.30;;;22.00;99.90;;;;;;5082978;28;20083;-60
2022/07/09 12:53:57;;;;;;;4.25;1.42;;;22.00;99.90;;;;;;5082854;28;20726;-60
2022/07/09 12:56:22;;;;;;;5.63;1.50;;;22.00;99.90;;;;;;5084225;28;20052;-60
2022/07/09 12:58:48;;;;;;;7.10;1.70;;;22.00;99.90;;;;;;5116158;27;20123;-61
2022/07/09 13:01:13;;;;;;;6.07;1.77;;;22.10;99.90;;;;;;5083401;28;20055;-60
2022/07/09 13:03:39;;;;;;;5.53;1.52;;;22.10;99.90;;;;;;5084060;28;20137;-62
2022/07/09 13:06:30;;;;;;;5.63;1.50;;;22.10;99.90;;;;;;5083132;28;20396;-61
2022/07/09 13:08:50;;;;;;;5.47;1.38;;;22.10;99.90;;;;;;5085424;28;20036;-64
2022/07/09 13:11:16;;;;;;;3.58;1.05;;;22.00;99.90;;;;;;5090189;28;20125;-62
2022/07/09 13:13:42;;;;;;;4.97;1.40;;;22.00;99.90;;;;;;5089663;28;20786;-62
2022/07/09 13:16:07;;;;;;;4.57;1.20;;;22.00;99.90;;;;;;5088593;28;20078;-61
2022/07/09 13:18:33;;;;;;;3.35;1.27;;;22.00;99.90;;;;;;5089113;28;20082;-74
2022/07/09 13:20:59;;;;;;;4.63;1.50;;;22.00;99.90;;;;;;5088893;28;20108;-63
2022/07/09 13:23:24;;;;;;;4.32;1.58;;;22.00;99.90;;;;;;5087717;28;20028;-63
2022/07/09 13:25:50;;;;;;;4.97;1.30;;;22.00;99.90;;;;;;5089045;28;20036;-64
2022/07/09 13:28:16;;;;;;;3.47;1.30;;;22.00;99.90;;;;;;5087638;28;20506;-64
2022/07/09 13:30:41;;;;;;;4.70;1.30;;;22.00;99.90;;;;;;5088993;28;20047;-62
2022/07/09 13:33:07;;;;;;;6.53;1.25;;;22.00;99.90;;;;;;5087263;28;20594;-63
2022/07/09 13:35:33;;;;;;;4.00;1.15;;;22.00;99.90;;;;;;5087533;28;20563;-62
2022/07/09 13:37:59;;;;;;;5.50;1.20;;;22.00;99.90;;;;;;5087687;28;20127;-62
2022/07/09 13:40:24;;;;;;;4.88;1.05;;;22.00;99.90;;;;;;5088386;28;20119;-62
2022/07/09 13:42:50;;;;;;;4.13;1.25;;;22.00;99.90;;;;;;5087919;28;20040;-61
2022/07/09 13:45:15;;;;;;;3.08;1.10;;;22.10;99.90;;;;;;5088824;28;20036;-60
2022/07/09 13:47:41;;;;;;;3.95;1.20;;;22.10;99.90;;;;;;5088928;28;20662;-61
2022/07/09 13:50:07;;;;;;;4.18;1.13;;;22.10;99.90;;;;;;5087535;28;20044;-62
2022/07/09 13:52:33;;;;;;;4.18;1.17;;;22.00;99.90;;;;;;5087944;28;20379;-62
2022/07/09 13:54:59;;;;;;;2.90;0.95;;;22.00;99.90;;;;;;5087925;28;20054;-61
2022/07/09 13:57:24;;;;;;;3.88;1.20;;;22.10;99.90;;;;;;5087917;28;20058;-60
2022/07/09 13:59:50;;;;;;;5.60;1.10;;;22.00;99.90;;;;;;5085585;28;20043;-60
2022/07/09 14:02:16;;;;;;;5.93;1.15;;;22.10;99.90;;;;;;5088534;28;20101;-61
2022/07/09 14:04:41;;;;;;;5.00;1.05;;;22.20;99.90;;;;;;5089084;28;20047;-61
2022/07/09 14:07:07;;;;;;;4.88;1.05;;;22.30;99.90;;;;;;5086361;28;20046;-61
2022/07/09 14:09:33;;;;;;;4.07;1.00;;;22.30;99.90;;;;;;5085243;28;20114;-60
2022/07/09 14:11:59;;;;;;;4.65;1.00;;;22.30;99.90;;;;;;5104812;27;20068;-62
2022/07/09 14:14:24;;;;;;;4.05;1.05;;;22.30;99.90;;;;;;5094831;28;20170;-60
2022/07/09 14:16:50;;;;;;;3.38;1.15;;;22.30;99.90;;;;;;5088186;28;20044;-61
2022/07/09 14:19:16;;;;;;;5.82;1.15;;;22.20;99.90;;;;;;5087907;28;20051;-62
2022/07/09 14:21:42;;;;;;;5.32;1.15;;;22.10;99.90;;;;;;5086818;28;20046;-61
2022/07/09 14:24:07;;;;;;;5.80;1.00;;;22.10;99.90;;;;;;5087377;28;20100;-70
2022/07/09 14:26:35;;;;;;;4.47;0.80;;;22.10;99.90;;;;;;5087655;28;20160;-61
2022/07/09 14:30:32;;;;;;;3.10;1.13;;;22.30;99.90;;;;;;5083536;27;20492;-53
2022/07/09 14:32:59;;;;;;;5.60;1.02;;;22.60;99.90;;;;;;5065965;28;20028;-51
2022/07/09 14:35:26;;;;;;;4.72;1.42;;;22.70;99.90;;;;;;5084840;28;20573;-52
2022/07/09 14:37:51;;;;;;;5.68;1.20;;;22.70;99.90;;;;;;5084946;28;20050;-51
2022/07/09 14:40:17;;;;;;;7.63;1.30;;;22.70;99.90;;;;;;5086613;28;20490;-52
2022/07/09 14:42:43;;;;;;;3.38;1.50;;;22.60;99.90;;;;;;5084393;28;20043;-52
2022/07/09 14:45:09;;;;;;;3.15;1.20;;;22.60;99.90;;;;;;5083604;28;20105;-53
2022/07/09 14:47:35;;;;;;;4.55;1.02;;;22.60;99.90;;;;;;5085033;28;20062;-53
2022/07/09 14:50:01;;;;;;;6.82;1.50;;;22.60;99.90;;;;;;5067618;28;20048;-53
2022/07/09 14:52:27;;;;;;;3.85;1.27;;;22.60;99.90;;;;;;5085051;28;20070;-49
2022/07/09 14:54:53;;;;;;;7.10;1.40;;;22.60;99.90;;;;;;5084769;28;20063;-50
2022/07/09 14:57:18;;;;;;;5.38;1.27;;;22.60;99.90;;;;;;5084318;28;20479;-50
2022/07/09 14:59:44;;;;;;;4.43;1.00;;;22.60;99.90;;;;;;5083536;28;20086;-50
2022/07/09 15:02:10;;;;;;;5.43;1.33;;;22.60;99.90;;;;;;5085474;28;20040;-51
2022/07/09 15:04:36;;;;;;;4.57;1.00;;;22.60;99.90;;;;;;5084423;28;20707;-53
2022/07/09 15:07:02;;;;;;;5.28;1.40;;;22.60;99.90;;;;;;5083507;28;20127;-52
2022/07/09 15:09:27;;;;;;;5.10;1.00;;;22.60;99.90;;;;;;5084646;28;20075;-52
2022/07/09 15:11:54;;;;;;;4.47;1.02;;;22.60;99.90;;;;;;5066951;28;20040;-50
2022/07/09 15:14:19;;;;;;;3.50;1.27;;;22.60;99.90;;;;;;5084062;28;20413;-52
2022/07/09 15:16:45;;;;;;;3.40;1.23;;;22.60;99.90;;;;;;5084675;28;20035;-51
2022/07/09 15:19:11;;;;;;;4.10;1.20;;;22.60;99.90;;;;;;5084566;28;20093;-51
2022/07/09 15:21:37;;;;;;;5.40;1.05;;;22.50;99.90;;;;;;5083403;28;20080;-52
2022/07/09 15:24:03;;;;;;;3.40;1.05;;;22.60;99.90;;;;;;5084459;28;20052;-52
2022/07/09 15:26:29;;;;;;;4.28;1.00;;;22.50;99.90;;;;;;5082784;28;20048;-52
2022/07/09 15:28:55;;;;;;;4.50;1.20;;;22.50;99.90;;;;;;5084350;28;20504;-52
2022/07/09 15:31:22;;;;;;;4.32;0.95;;;22.50;99.90;;;;;;5084387;28;20059;-54
2022/07/09 15:33:48;;;;;;;4.72;1.15;;;22.50;99.90;;;;;;5083364;28;20051;-52
2022/07/09 15:36:14;;;;;;;3.05;1.02;;;22.50;99.90;;;;;;5083409;28;20083;-52
2022/07/09 15:38:39;;;;;;;4.22;1.20;;;22.50;99.90;;;;;;5084234;28;20888;-51
2022/07/09 15:41:10;;;;;;;3.95;1.23;;;22.50;99.90;;;;;;5056609;28;20313;-52
2022/07/09 15:43:36;;;;;;;3.00;0.98;;;22.40;99.90;;;;;;5069123;28;20101;-51
2022/07/09 15:46:02;;;;;;;3.67;1.02;;;22.40;99.90;;;;;;5070563;28;21269;-52
2022/07/09 15:48:28;;;;;;;2.90;1.00;;;22.40;99.90;;;;;;5070444;28;20063;-53
2022/07/09 15:50:54;;;;;;;6.80;1.50;;;22.40;99.90;;;;;;5070345;28;20036;-52
2022/07/09 15:53:20;;;;;;;4.28;0.90;;;22.40;99.90;;;;;;5067896;28;20036;-53
2022/07/09 15:55:47;;;;;;;5.75;1.20;;;22.40;99.90;;;;;;5069355;28;20457;-50
2022/07/09 15:58:13;;;;;;;5.90;1.38;;;22.40;99.90;;;;;;5069747;28;20043;-52
2022/07/09 16:00:39;;;;;;;2.03;0.70;;;22.40;99.90;;;;;;5068966;28;20119;-50
2022/07/09 16:03:05;;;;;;;3.50;1.20;;;22.40;99.90;;;;;;5069371;28;20151;-51
2022/07/09 16:05:33;;;;;;;5.00;1.40;;;22.40;99.90;;;;;;5069115;28;20067;-52
2022/07/09 16:07:59;;;;;;;3.95;1.00;;;22.40;99.90;;;;;;5068489;28;20044;-52
2022/07/09 16:10:25;;;;;;;2.92;1.17;;;22.30;99.90;;;;;;5068629;28;20044;-53
2022/07/09 16:12:52;;;;;;;5.43;1.17;;;22.30;99.90;;;;;;5052823;28;20072;-52
2022/07/09 16:15:18;;;;;;;4.30;0.88;;;22.40;99.90;;;;;;5068504;28;20103;-53
2022/07/09 16:17:44;;;;;;;2.95;1.20;;;22.40;99.90;;;;;;5070170;28;20028;-51
2022/07/09 16:20:11;;;;;;;3.13;1.10;;;22.40;99.90;;;;;;5067902;28;20054;-50
2022/07/09 16:22:37;;;;;;;3.55;1.17;;;22.40;99.90;;;;;;5069552;28;20118;-52
2022/07/09 16:25:03;;;;;;;3.20;1.20;;;22.40;99.90;;;;;;5069180;28;20037;-52
2022/07/09 16:27:29;;;;;;;4.65;1.05;;;22.30;99.90;;;;;;5070627;28;20047;-51
2022/07/09 16:29:55;;;;;;;3.20;1.23;;;22.30;99.90;;;;;;5069316;28;20061;-52
2022/07/09 16:32:21;;;;;;;3.65;1.00;;;22.30;99.90;;;;;;5051002;28;20048;-52
2022/07/09 16:34:47;;;;;;;2.85;0.85;;;22.30;99.90;;;;;;5067992;28;20130;-51
2022/07/09 16:37:13;;;;;;;3.50;0.93;;;22.30;99.90;;;;;;5051225;28;20048;-53
2022/07/09 16:39:38;;;;;;;2.45;0.82;;;22.30;99.90;;;;;;5068377;28;20150;-52
2022/07/09 16:42:04;;;;;;;3.08;1.02;;;22.30;99.90;;;;;;5069694;28;20487;-52
2022/07/09 16:44:30;;;;;;;2.80;0.98;;;22.30;99.90;;;;;;5068212;28;20040;-51
2022/07/09 16:46:56;;;;;;;2.88;0.88;;;22.30;99.90;;;;;;5069340;28;20633;-55
2022/07/09 16:49:22;;;;;;;2.60;0.75;;;22.30;99.90;;;;;;5067918;28;20059;-49
2022/07/09 16:51:47;;;;;;;3.83;1.10;;;22.30;99.90;;;;;;5067798;28;20040;-51
2022/07/09 16:54:13;;;;;;;4.35;1.10;;;22.30;99.90;;;;;;5070805;28;20625;-49
2022/07/09 16:56:39;;;;;;;4.28;1.13;;;22.30;99.90;;;;;;5067524;28;21081;-52
2022/07/09 16:59:06;;;;;;;4.07;1.30;;;22.30;99.90;;;;;;5069957;28;20051;-52
2022/07/09 17:01:33;;;;;;;2.60;0.90;;;22.30;99.90;;;;;;5067183;28;20023;-51
2022/07/09 17:03:59;;;;;;;5.30;1.15;;;22.20;99.90;;;;;;5049653;28;20067;-53
2022/07/09 17:06:25;;;;;;;4.43;1.00;;;22.30;99.90;;;;;;5067598;28;20029;-50
2022/07/09 17:08:51;;;;;;;2.55;0.82;;;22.30;99.90;;;;;;5069649;28;20160;-52
2022/07/09 17:11:18;;;;;;;5.05;0.90;;;22.30;99.90;;;;;;5068426;28;20715;-55
2022/07/09 17:13:43;;;;;;;4.55;0.90;;;22.30;99.90;;;;;;5068561;28;20040;-53
2022/07/09 17:16:09;;;;;;;3.47;0.93;;;22.20;99.90;;;;;;5068228;28;20039;-53
2022/07/09 17:18:36;;;;;;;3.92;1.00;;;22.30;99.90;;;;;;5069095;28;20630;-53
2022/07/09 17:21:02;;;;;;;3.42;0.82;;;22.30;99.90;;;;;;5066528;28;20104;-53
2022/07/09 17:23:27;;;;;;;2.22;0.73;;;22.20;99.90;;;;;;5068062;28;20036;-52
2022/07/09 17:25:53;;;;;;;2.85;0.90;;;22.20;99.90;;;;;;5069179;28;20046;-52
2022/07/09 17:28:19;;;;;;;3.92;1.10;;;22.20;99.90;;;;;;5068233;28;20048;-53
2022/07/09 17:30:44;;;;;;;3.50;0.85;;;22.20;99.90;;;;;;5066823;28;20507;-53
2022/07/09 17:33:10;;;;;;;3.53;0.80;;;22.10;99.90;;;;;;5068315;28;20046;-53
2022/07/09 17:35:36;;;;;;;2.42;0.80;;;22.10;99.90;;;;;;5067335;28;20133;-50
2022/07/09 17:38:01;;;;;;;2.58;0.90;;;22.10;99.90;;;;;;5067916;28;20117;-52
2022/07/09 17:40:27;;;;;;;1.83;0.88;;;22.10;99.90;;;;;;5066465;28;20044;-52
2022/07/09 17:42:53;;;;;;;4.28;0.90;;;22.10;99.90;;;;;;5068433;28;20028;-52
2022/07/09 17:45:19;;;;;;;3.78;1.13;;;22.10;99.90;;;;;;5067407;28;20060;-52
2022/07/09 17:47:45;;;;;;;5.18;0.80;;;22.10;99.90;;;;;;5049711;28;20525;-52
2022/07/09 17:50:11;;;;;;;3.58;0.88;;;22.00;99.90;;;;;;5068767;28;20043;-53
2022/07/09 17:52:38;;;;;;;2.80;0.90;;;22.00;99.90;;;;;;5068347;28;20450;-55
2022/07/09 17:55:20;;;;;;;3.42;0.85;;;22.00;99.90;;;;;;5067023;28;20037;-56
2022/07/09 17:57:57;;;;;;;3.03;0.80;;;22.00;99.90;;;;;;5066788;28;20096;-58
2022/07/09 18:00:25;;;;;;;6.43;0.90;;;22.00;99.90;;;;;;5066793;28;20150;-57
2022/07/09 18:02:51;;;;;;;6.43;0.85;;;22.00;99.90;;;;;;5066674;28;20518;-54
2022/07/09 18:05:17;;;;;;;3.08;0.60;;;22.00;99.90;;;;;;5066774;28;20040;-58
2022/07/09 18:07:44;;;;;;;2.42;0.90;;;22.00;99.90;;;;;;5066455;28;20048;-55
2022/07/09 18:10:10;;;;;;;5.28;0.98;;;22.00;99.90;;;;;;5066641;28;20058;-54
2022/07/09 18:12:36;;;;;;;5.13;1.02;;;22.00;99.90;;;;;;5065567;28;20037;-53
2022/07/09 18:15:03;;;;;;;2.20;0.80;;;22.00;99.90;;;;;;5047813;28;20078;-53
2022/07/09 18:17:29;;;;;;;7.80;1.25;;;22.00;99.90;;;;;;5066264;28;20040;-48
2022/07/09 18:19:55;;;;;;;5.15;0.82;;;22.00;99.90;;;;;;5066577;28;20067;-51
2022/07/09 18:22:21;;;;;;;2.53;0.75;;;22.00;99.90;;;;;;5065284;28;20550;-49
2022/07/09 18:24:46;;;;;;;6.03;0.93;;;22.00;99.90;;;;;;5066452;28;20403;-49
2022/07/09 18:27:12;;;;;;;6.40;1.10;;;22.00;99.90;;;;;;5049293;28;20051;-53
2022/07/09 18:29:38;;;;;;;4.30;1.10;;;22.00;99.90;;;;;;5065706;28;20044;-50
2022/07/09 18:32:04;;;;;;;4.22;0.95;;;21.90;99.90;;;;;;5048694;28;20055;-50
2022/07/09 18:34:29;;;;;;;7.03;1.00;;;21.90;99.90;;;;;;5066115;28;20162;-50
2022/07/09 18:36:55;;;;;;;6.90;1.08;;;21.90;99.90;;;;;;5066546;28;20044;-52
2022/07/09 18:39:20;;;;;;;3.13;0.80;;;21.90;99.90;;;;;;5063584;28;20470;-49
2022/07/09 18:41:46;;;;;;;4.88;1.25;;;21.90;99.90;;;;;;5047367;28;20124;-52
2022/07/09 18:44:15;;;;;;;4.55;0.95;;;21.90;99.90;;;;;;5066180;28;20833;-51
2022/07/09 18:46:45;;;;;;;5.43;0.93;;;21.90;99.90;;;;;;5047354;28;20095;-53
2022/07/09 18:49:11;;;;;;;6.68;1.05;;;21.90;99.90;;;;;;5066151;28;20048;-48
2022/07/09 18:51:37;;;;;;;3.80;1.00;;;21.80;99.90;;;;;;5065975;28;20132;-51
2022/07/09 18:54:03;;;;;;;7.22;1.20;;;21.80;99.90;;;;;;5047066;28;20122;-53
2022/07/09 18:56:29;;;;;;;3.20;0.80;;;21.80;99.90;;;;;;5064906;28;20522;-49
2022/07/09 18:58:55;;;;;;;6.00;1.27;;;21.90;99.90;;;;;;5048945;28;20048;-53
2022/07/09 19:01:20;;;;;;;5.47;0.88;;;21.90;99.90;;;;;;5067057;28;20078;-49
2022/07/09 19:03:46;;;;;;;4.75;0.88;;;21.90;99.90;;;;;;5065703;28;20981;-51
2022/07/09 19:06:11;;;;;;;3.75;1.10;;;21.90;99.90;;;;;;5046684;28;20084;-51
2022/07/09 19:08:37;;;;;;;5.00;1.05;;;21.90;99.90;;;;;;5066015;28;20534;-54
2022/07/09 19:11:03;;;;;;;5.22;1.23;;;21.90;99.90;;;;;;5065101;28;20240;-52
2022/07/09 19:13:28;;;;;;;6.45;0.80;;;21.90;99.90;;;;;;5065807;28;20028;-50
2022/07/09 19:15:54;;;;;;;5.97;1.02;;;21.90;99.90;;;;;;5067546;28;20143;-52
2022/07/09 19:18:20;;;;;;;4.25;1.00;;;21.90;99.90;;;;;;5070352;28;20040;-52
2022/07/09 19:20:45;;;;;;;4.05;0.80;;;21.90;99.90;;;;;;5068894;28;20048;-54
2022/07/09 19:23:11;;;;;;;4.93;1.10;;;21.90;99.90;;;;;;5070343;28;20036;-53
2022/07/09 19:25:37;;;;;;;5.97;1.00;;;21.90;99.90;;;;;;5067483;28;20055;-53
2022/07/09 19:28:02;;;;;;;6.05;1.02;;;21.90;99.90;;;;;;5069265;28;20090;-53
